New Paltz, New York
Current Conditions -  °F | °C
As of 7:53 PM on Friday 19 Dec 2014 (Local Time) from KPOU Reporting Station
Clear Clear  
Wind Chill: 29°   Ceiling: Unl
Heat Index: 29°   Visibility: 10mi
Dew Point: 19°   Wind: 3mph
Humidity: 67%   Direction: 320°NW
Pressure: 30.15"   Gusts: NA
Location:  41.75°N, 74.08°W
Report Text: KPOU 200053Z AUTO 32003KT 10SM CLR M02/M07 A3015 RMK AO2 SLP210 T10171072 TSNO
Loading
Personal Weather Stations






























Interactive Weather Map New forecast layout! Learn more

10-Day Weather Forecast

Advertisements
Track Severe Weather on mobile